Airfield :
LOGIN :

Register | Disclaimer

   EN    FR    IT 

 










Legend :    VFR   Marginal VFR   IFR   Intensive IFR   Very Intensive IFR
Visi :
Ceiling :
>= 8 km
>= 3000ft
5 to 8 km
1000 to 3000 ft
1500m to 5 km
500 to 1000 ft
800 to 1500m
200 to 500 ft
< 800m
< 200 ft
Symbols :   Thunderstorms  Fog  Heavy snow  Heavy precipitations  Wind > 20 kt
SIGMETs :     Misc.  Thunderstorms  Icing  Turbulence  Mountain Waves  Volcanic Ashes






- Airport Elevation : 13 ft
- IATA code : CEQ


LFMD - Cannes Mandelieu

CURRENT METAR :
  • 171930Z AUTO VRB02KT 9999 FEW074 SCT120 15/14 Q1018 NOSIG

EXPIRED METARs :
  • 171900Z AUTO VRB02KT 9999 BKN056 16/14 Q1019 NOSIG
  • 171830Z AUTO VRB02KT 9999 FEW025 BKN056 16/14 Q1018 NOSIG
  • 171800Z AUTO VRB03KT 9999 BKN058 16/14 Q1018 NOSIG
  • 171730Z AUTO VRB02KT CAVOK 17/14 Q1018 NOSIG
  • 171700Z AUTO 02003KT 350V050 9999 FEW056 18/14 Q1018 TEMPO 4000 SHRA SCT020TCU

TAF TAF LFMD
Valid from the 17 at 15:00 until the 18 at 15:00 UTC


171400Z 1715/1815 16005KT 9999 BKN070
PROB30
TEMPO 1715/1718 4000 SHRA SCT020TCU
BECMG 1718/1720 35005KT
BECMG 1809/1811 16010KT
TEMPO 1811/1815 VRB10KT 4000 SHRA SCT020TCU BKN040
ATIS : +33 4 93 48 73 23



MET'MAP, your aeronautical weather chart ! - Copyright ORBIFLY December 2007 - Disclaimer

ORBIFLY MET'MAP TEAM :

Programming & Development : Alexandra Zaïnal
Concept & Development : Baudouin d'Aumeries
Co-Development & Prog : Marc-Olivier Méhu
Technical & hardware support : Manuel Goepfert

Contact : metmap@orbifly.com




SOURCES & CREDITS :

   NOAA